sensor_id;sensor_type;location;lat;lon;timestamp;temperature;humidity
13245;DHT22;6689;53.400;12.486;2022-07-22T00:02:10;20.90;99.90
13245;DHT22;6689;53.400;12.486;2022-07-22T00:05:05;20.90;99.90
13245;DHT22;6689;53.400;12.486;2022-07-22T00:07:46;20.90;99.90
13245;DHT22;6689;53.400;12.486;2022-07-22T00:10:27;20.90;99.90
13245;DHT22;6689;53.400;12.486;2022-07-22T00:13:08;21.00;99.90
13245;DHT22;6689;53.400;12.486;2022-07-22T00:15:35;21.00;93.40
13245;DHT22;6689;53.400;12.486;2022-07-22T00:18:16;21.00;99.90
13245;DHT22;6689;53.400;12.486;2022-07-22T00:21:00;21.00;99.90
13245;DHT22;6689;53.400;12.486;2022-07-22T00:23:41;21.00;99.90
13245;DHT22;6689;53.400;12.486;2022-07-22T00:26:10;21.00;99.90
13245;DHT22;6689;53.400;12.486;2022-07-22T00:28:40;20.90;99.90
13245;DHT22;6689;53.400;12.486;2022-07-22T00:31:21;20.90;99.90
13245;DHT22;6689;53.400;12.486;2022-07-22T00:34:02;20.80;99.90
13245;DHT22;6689;53.400;12.486;2022-07-22T00:39:36;20.90;99.90
13245;DHT22;6689;53.400;12.486;2022-07-22T00:42:05;20.80;99.90
13245;DHT22;6689;53.400;12.486;2022-07-22T00:44:36;20.70;99.90
13245;DHT22;6689;53.400;12.486;2022-07-22T00:47:05;20.70;99.90
13245;DHT22;6689;53.400;12.486;2022-07-22T00:49:46;20.70;99.90
13245;DHT22;6689;53.400;12.486;2022-07-22T00:52:15;20.70;99.90
13245;DHT22;6689;53.400;12.486;2022-07-22T00:55:06;20.60;99.90
13245;DHT22;6689;53.400;12.486;2022-07-22T00:57:41;20.60;99.90
13245;DHT22;6689;53.400;12.486;2022-07-22T01:00:16;20.60;99.90
13245;DHT22;6689;53.400;12.486;2022-07-22T01:02:46;20.50;99.90
13245;DHT22;6689;53.400;12.486;2022-07-22T01:05:16;20.60;99.90
13245;DHT22;6689;53.400;12.486;2022-07-22T01:07:46;20.60;99.90
13245;DHT22;6689;53.400;12.486;2022-07-22T01:10:31;20.50;99.90
13245;DHT22;6689;53.400;12.486;2022-07-22T01:13:12;20.50;99.90
13245;DHT22;6689;53.400;12.486;2022-07-22T01:15:53;20.50;99.90
13245;DHT22;6689;53.400;12.486;2022-07-22T01:18:35;20.50;99.90
13245;DHT22;6689;53.400;12.486;2022-07-22T01:21:21;20.50;99.90
13245;DHT22;6689;53.400;12.486;2022-07-22T01:23:56;20.50;99.90
13245;DHT22;6689;53.400;12.486;2022-07-22T01:26:37;20.40;99.90
13245;DHT22;6689;53.400;12.486;2022-07-22T01:29:18;20.40;99.90
13245;DHT22;6689;53.400;12.486;2022-07-22T01:31:59;20.30;99.90
13245;DHT22;6689;53.400;12.486;2022-07-22T01:34:26;20.30;99.90
13245;DHT22;6689;53.400;12.486;2022-07-22T01:40:12;20.20;99.90
13245;DHT22;6689;53.400;12.486;2022-07-22T01:42:46;20.20;99.90
13245;DHT22;6689;53.400;12.486;2022-07-22T01:45:17;20.10;99.90
13245;DHT22;6689;53.400;12.486;2022-07-22T01:47:52;20.10;99.90
13245;DHT22;6689;53.400;12.486;2022-07-22T01:50:26;20.20;99.90
13245;DHT22;6689;53.400;12.486;2022-07-22T01:53:07;20.20;99.90
13245;DHT22;6689;53.400;12.486;2022-07-22T01:55:47;20.20;99.90
13245;DHT22;6689;53.400;12.486;2022-07-22T01:58:22;20.20;99.90
13245;DHT22;6689;53.400;12.486;2022-07-22T02:01:02;20.20;99.90
13245;DHT22;6689;53.400;12.486;2022-07-22T02:03:33;20.20;99.90
13245;DHT22;6689;53.400;12.486;2022-07-22T02:06:01;20.30;99.90
13245;DHT22;6689;53.400;12.486;2022-07-22T02:08:32;20.30;99.90
13245;DHT22;6689;53.400;12.486;2022-07-22T02:14:22;20.30;99.90
13245;DHT22;6689;53.400;12.486;2022-07-22T02:16:56;20.40;99.90
13245;DHT22;6689;53.400;12.486;2022-07-22T02:19:27;20.40;99.90
13245;DHT22;6689;53.400;12.486;2022-07-22T02:22:02;20.30;99.90
13245;DHT22;6689;53.400;12.486;2022-07-22T02:24:33;20.30;99.90
13245;DHT22;6689;53.400;12.486;2022-07-22T02:27:02;20.30;99.90
13245;DHT22;6689;53.400;12.486;2022-07-22T02:29:42;20.30;99.90
13245;DHT22;6689;53.400;12.486;2022-07-22T02:32:23;20.20;99.90
13245;DHT22;6689;53.400;12.486;2022-07-22T02:34:58;20.30;99.90
13245;DHT22;6689;53.400;12.486;2022-07-22T02:37:32;20.20;99.90
13245;DHT22;6689;53.400;12.486;2022-07-22T02:40:13;20.20;99.90
13245;DHT22;6689;53.400;12.486;2022-07-22T02:42:54;20.20;99.90
13245;DHT22;6689;53.400;12.486;2022-07-22T02:45:52;20.20;99.90
13245;DHT22;6689;53.400;12.486;2022-07-22T02:48:22;20.30;99.90
13245;DHT22;6689;53.400;12.486;2022-07-22T02:51:03;20.30;99.90
13245;DHT22;6689;53.400;12.486;2022-07-22T02:53:32;20.30;99.90
13245;DHT22;6689;53.400;12.486;2022-07-22T02:56:03;20.30;99.90
13245;DHT22;6689;53.400;12.486;2022-07-22T02:58:38;20.30;99.90
13245;DHT22;6689;53.400;12.486;2022-07-22T03:01:37;20.20;99.90
13245;DHT22;6689;53.400;12.486;2022-07-22T03:04:08;20.20;99.90
13245;DHT22;6689;53.400;12.486;2022-07-22T03:06:42;20.10;99.90
13245;DHT22;6689;53.400;12.486;2022-07-22T03:09:23;20.10;99.90
13245;DHT22;6689;53.400;12.486;2022-07-22T03:12:04;20.00;99.90
13245;DHT22;6689;53.400;12.486;2022-07-22T03:14:45;20.00;99.90
13245;DHT22;6689;53.400;12.486;2022-07-22T03:17:28;20.00;99.90
13245;DHT22;6689;53.400;12.486;2022-07-22T03:20:10;20.00;99.90
13245;DHT22;6689;53.400;12.486;2022-07-22T03:25:18;20.00;99.90
13245;DHT22;6689;53.400;12.486;2022-07-22T03:27:53;20.00;99.90
13245;DHT22;6689;53.400;12.486;2022-07-22T03:30:34;20.00;99.90
13245;DHT22;6689;53.400;12.486;2022-07-22T03:33:24;20.00;99.90
13245;DHT22;6689;53.400;12.486;2022-07-22T03:36:05;20.00;99.90
13245;DHT22;6689;53.400;12.486;2022-07-22T03:38:46;20.10;99.90
13245;DHT22;6689;53.400;12.486;2022-07-22T03:41:13;20.10;99.90
13245;DHT22;6689;53.400;12.486;2022-07-22T03:43:54;20.10;99.90
13245;DHT22;6689;53.400;12.486;2022-07-22T03:46:35;20.10;99.90
13245;DHT22;6689;53.400;12.486;2022-07-22T03:49:09;20.10;99.90
13245;DHT22;6689;53.400;12.486;2022-07-22T03:51:39;20.10;99.90
13245;DHT22;6689;53.400;12.486;2022-07-22T03:54:14;20.10;99.90
13245;DHT22;6689;53.400;12.486;2022-07-22T03:56:55;20.10;99.90
13245;DHT22;6689;53.400;12.486;2022-07-22T03:59:29;20.10;99.90
13245;DHT22;6689;53.400;12.486;2022-07-22T04:02:10;20.10;99.90
13245;DHT22;6689;53.400;12.486;2022-07-22T04:04:40;20.10;99.90
13245;DHT22;6689;53.400;12.486;2022-07-22T04:07:09;20.10;99.90
13245;DHT22;6689;53.400;12.486;2022-07-22T04:09:49;20.00;99.90
13245;DHT22;6689;53.400;12.486;2022-07-22T04:12:31;20.00;99.90
13245;DHT22;6689;53.400;12.486;2022-07-22T04:14:59;20.00;99.90
13245;DHT22;6689;53.400;12.486;2022-07-22T04:17:29;20.00;99.90
13245;DHT22;6689;53.400;12.486;2022-07-22T04:20:24;20.00;99.90
13245;DHT22;6689;53.400;12.486;2022-07-22T04:22:54;20.10;99.90
13245;DHT22;6689;53.400;12.486;2022-07-22T04:25:35;20.10;99.90
13245;DHT22;6689;53.400;12.486;2022-07-22T04:28:16;20.10;99.90
13245;DHT22;6689;53.400;12.486;2022-07-22T04:30:45;20.10;99.90
13245;DHT22;6689;53.400;12.486;2022-07-22T04:33:19;20.10;99.90
13245;DHT22;6689;53.400;12.486;2022-07-22T04:36:24;20.10;99.90
13245;DHT22;6689;53.400;12.486;2022-07-22T04:39:05;20.10;1.00
13245;DHT22;6689;53.400;12.486;2022-07-22T04:41:46;20.10;1.00
13245;DHT22;6689;53.400;12.486;2022-07-22T04:44:15;20.00;1.00
13245;DHT22;6689;53.400;12.486;2022-07-22T04:46:55;20.00;1.00
13245;DHT22;6689;53.400;12.486;2022-07-22T04:49:36;20.10;1.00
13245;DHT22;6689;53.400;12.486;2022-07-22T04:52:20;20.00;1.00
13245;DHT22;6689;53.400;12.486;2022-07-22T04:54:51;20.10;1.00
13245;DHT22;6689;53.400;12.486;2022-07-22T04:57:25;20.10;1.00
13245;DHT22;6689;53.400;12.486;2022-07-22T05:00:00;20.10;1.00
13245;DHT22;6689;53.400;12.486;2022-07-22T05:02:40;20.10;1.00
13245;DHT22;6689;53.400;12.486;2022-07-22T05:05:21;20.20;1.00
13245;DHT22;6689;53.400;12.486;2022-07-22T05:08:06;20.20;1.00
13245;DHT22;6689;53.400;12.486;2022-07-22T05:10:40;20.20;1.00
13245;DHT22;6689;53.400;12.486;2022-07-22T05:13:21;20.30;1.00
13245;DHT22;6689;53.400;12.486;2022-07-22T05:15:50;20.20;1.00
13245;DHT22;6689;53.400;12.486;2022-07-22T05:18:20;20.30;1.00
13245;DHT22;6689;53.400;12.486;2022-07-22T05:21:01;20.20;1.00
13245;DHT22;6689;53.400;12.486;2022-07-22T05:26:36;20.30;1.00
13245;DHT22;6689;53.400;12.486;2022-07-22T05:29:17;20.30;1.00
13245;DHT22;6689;53.400;12.486;2022-07-22T05:31:58;20.30;1.00
13245;DHT22;6689;53.400;12.486;2022-07-22T05:34:26;20.30;1.00
13245;DHT22;6689;53.400;12.486;2022-07-22T05:37:01;20.30;1.00
13245;DHT22;6689;53.400;12.486;2022-07-22T05:39:30;20.30;1.00
13245;DHT22;6689;53.400;12.486;2022-07-22T05:42:21;20.30;1.00
13245;DHT22;6689;53.400;12.486;2022-07-22T05:44:55;20.30;1.00
13245;DHT22;6689;53.400;12.486;2022-07-22T05:47:36;20.20;1.00
13245;DHT22;6689;53.400;12.486;2022-07-22T05:50:08;20.20;1.00
13245;DHT22;6689;53.400;12.486;2022-07-22T05:52:36;20.20;1.00
13245;DHT22;6689;53.400;12.486;2022-07-22T05:55:08;20.20;1.00
13245;DHT22;6689;53.400;12.486;2022-07-22T05:57:56;20.10;1.00
13245;DHT22;6689;53.400;12.486;2022-07-22T06:00:37;20.10;1.00
13245;DHT22;6689;53.400;12.486;2022-07-22T06:03:11;20.10;1.00
13245;DHT22;6689;53.400;12.486;2022-07-22T06:05:42;20.20;1.00
13245;DHT22;6689;53.400;12.486;2022-07-22T06:08:11;20.20;1.00
13245;DHT22;6689;53.400;12.486;2022-07-22T06:10:42;20.20;8.80
13245;DHT22;6689;53.400;12.486;2022-07-22T06:16:32;20.30;1.00
13245;DHT22;6689;53.400;12.486;2022-07-22T06:19:01;20.30;1.00
13245;DHT22;6689;53.400;12.486;2022-07-22T06:21:36;20.30;8.60
13245;DHT22;6689;53.400;12.486;2022-07-22T06:24:07;20.30;1.00
13245;DHT22;6689;53.400;12.486;2022-07-22T06:26:47;20.30;1.00
13245;DHT22;6689;53.400;12.486;2022-07-22T06:29:16;20.30;7.00
13245;DHT22;6689;53.400;12.486;2022-07-22T06:31:56;20.20;20.70
13245;DHT22;6689;53.400;12.486;2022-07-22T06:34:31;20.20;12.70
13245;DHT22;6689;53.400;12.486;2022-07-22T06:37:02;20.10;56.00
13245;DHT22;6689;53.400;12.486;2022-07-22T06:39:37;20.00;8.40
13245;DHT22;6689;53.400;12.486;2022-07-22T06:42:12;20.00;1.00
13245;DHT22;6689;53.400;12.486;2022-07-22T06:44:48;20.00;1.00
13245;DHT22;6689;53.400;12.486;2022-07-22T06:47:21;20.00;1.00
13245;DHT22;6689;53.400;12.486;2022-07-22T06:50:03;19.50;1.00
13245;DHT22;6689;53.400;12.486;2022-07-22T06:52:32;19.70;1.00
13245;DHT22;6689;53.400;12.486;2022-07-22T06:55:07;19.50;1.00
13245;DHT22;6689;53.400;12.486;2022-07-22T06:57:36;19.30;1.00
13245;DHT22;6689;53.400;12.486;2022-07-22T07:00:17;19.30;1.00
13245;DHT22;6689;53.400;12.486;2022-07-22T07:03:12;19.30;1.00
13245;DHT22;6689;53.400;12.486;2022-07-22T07:05:43;19.20;1.00
13245;DHT22;6689;53.400;12.486;2022-07-22T07:08:11;19.30;1.00
13245;DHT22;6689;53.400;12.486;2022-07-22T07:10:42;19.30;1.00
13245;DHT22;6689;53.400;12.486;2022-07-22T07:13:23;19.40;1.00
13245;DHT22;6689;53.400;12.486;2022-07-22T07:16:04;19.30;1.00
13245;DHT22;6689;53.400;12.486;2022-07-22T07:18:33;19.30;1.00
13245;DHT22;6689;53.400;12.486;2022-07-22T07:21:16;19.30;1.00
13245;DHT22;6689;53.400;12.486;2022-07-22T07:23:57;19.30;1.00
13245;DHT22;6689;53.400;12.486;2022-07-22T07:26:38;19.30;1.00
13245;DHT22;6689;53.400;12.486;2022-07-22T07:29:07;19.30;1.00
13245;DHT22;6689;53.400;12.486;2022-07-22T07:31:42;19.30;1.00
13245;DHT22;6689;53.400;12.486;2022-07-22T07:34:13;19.50;1.00
13245;DHT22;6689;53.400;12.486;2022-07-22T07:36:53;19.60;99.90
13245;DHT22;6689;53.400;12.486;2022-07-22T07:39:34;19.80;99.90
13245;DHT22;6689;53.400;12.486;2022-07-22T07:42:03;20.10;99.90
13245;DHT22;6689;53.400;12.486;2022-07-22T07:44:44;20.30;99.90
13245;DHT22;6689;53.400;12.486;2022-07-22T07:47:26;20.50;99.90
13245;DHT22;6689;53.400;12.486;2022-07-22T07:53:08;21.10;99.90
13245;DHT22;6689;53.400;12.486;2022-07-22T07:55:50;21.10;99.90
13245;DHT22;6689;53.400;12.486;2022-07-22T07:58:17;21.40;99.90
13245;DHT22;6689;53.400;12.486;2022-07-22T08:00:58;21.20;99.90
13245;DHT22;6689;53.400;12.486;2022-07-22T08:03:33;21.40;99.90
13245;DHT22;6689;53.400;12.486;2022-07-22T08:06:03;21.20;99.90
13245;DHT22;6689;53.400;12.486;2022-07-22T08:08:34;21.50;99.90
13245;DHT22;6689;53.400;12.486;2022-07-22T08:11:08;21.50;98.60
13245;DHT22;6689;53.400;12.486;2022-07-22T08:13:43;21.70;97.70
13245;DHT22;6689;53.400;12.486;2022-07-22T08:16:18;21.80;99.90
13245;DHT22;6689;53.400;12.486;2022-07-22T08:18:48;21.80;99.90
13245;DHT22;6689;53.400;12.486;2022-07-22T08:21:29;22.00;90.40
13245;DHT22;6689;53.400;12.486;2022-07-22T08:24:13;22.10;70.00
13245;DHT22;6689;53.400;12.486;2022-07-22T08:26:54;22.20;20.30
13245;DHT22;6689;53.400;12.486;2022-07-22T08:29:29;22.60;28.10
13245;DHT22;6689;53.400;12.486;2022-07-22T08:32:09;22.60;3.20
13245;DHT22;6689;53.400;12.486;2022-07-22T08:34:50;22.70;1.00
13245;DHT22;6689;53.400;12.486;2022-07-22T08:37:18;22.70;1.00
13245;DHT22;6689;53.400;12.486;2022-07-22T08:43:18;22.60;1.00
13245;DHT22;6689;53.400;12.486;2022-07-22T08:45:59;22.70;1.00
13245;DHT22;6689;53.400;12.486;2022-07-22T08:48:28;22.60;1.00
13245;DHT22;6689;53.400;12.486;2022-07-22T08:51:08;22.60;1.00
13245;DHT22;6689;53.400;12.486;2022-07-22T08:53:49;22.80;1.00
13245;DHT22;6689;53.400;12.486;2022-07-22T08:56:30;22.90;1.00
13245;DHT22;6689;53.400;12.486;2022-07-22T09:02:13;23.20;1.00
13245;DHT22;6689;53.400;12.486;2022-07-22T09:04:56;23.40;1.00
13245;DHT22;6689;53.400;12.486;2022-07-22T09:07:39;23.40;1.00
13245;DHT22;6689;53.400;12.486;2022-07-22T09:10:10;23.00;1.00
13245;DHT22;6689;53.400;12.486;2022-07-22T09:12:50;23.00;1.00
13245;DHT22;6689;53.400;12.486;2022-07-22T09:15:25;23.00;1.00
13245;DHT22;6689;53.400;12.486;2022-07-22T09:17:56;23.00;1.00
13245;DHT22;6689;53.400;12.486;2022-07-22T09:20:24;22.70;1.00
13245;DHT22;6689;53.400;12.486;2022-07-22T09:23:11;22.70;1.00
13245;DHT22;6689;53.400;12.486;2022-07-22T09:25:40;22.30;1.00
13245;DHT22;6689;53.400;12.486;2022-07-22T09:28:18;22.20;1.00
13245;DHT22;6689;53.400;12.486;2022-07-22T09:30:54;22.10;1.00
13245;DHT22;6689;53.400;12.486;2022-07-22T09:33:34;22.10;1.00
13245;DHT22;6689;53.400;12.486;2022-07-22T09:36:15;21.90;1.00
13245;DHT22;6689;53.400;12.486;2022-07-22T09:38:56;21.90;1.00
13245;DHT22;6689;53.400;12.486;2022-07-22T09:41:24;21.70;1.00
13245;DHT22;6689;53.400;12.486;2022-07-22T09:44:20;21.70;1.00
13245;DHT22;6689;53.400;12.486;2022-07-22T09:47:01;21.60;1.00
13245;DHT22;6689;53.400;12.486;2022-07-22T09:49:39;21.60;1.00
13245;DHT22;6689;53.400;12.486;2022-07-22T09:52:20;21.70;1.00
13245;DHT22;6689;53.400;12.486;2022-07-22T09:54:49;21.70;1.00
13245;DHT22;6689;53.400;12.486;2022-07-22T09:57:18;21.70;3.40
13245;DHT22;6689;53.400;12.486;2022-07-22T09:59:49;21.80;1.00
13245;DHT22;6689;53.400;12.486;2022-07-22T10:02:20;21.70;1.00
13245;DHT22;6689;53.400;12.486;2022-07-22T10:05:05;21.70;1.00
13245;DHT22;6689;53.400;12.486;2022-07-22T10:07:46;21.50;1.00
13245;DHT22;6689;53.400;12.486;2022-07-22T10:10:16;21.60;1.00
13245;DHT22;6689;53.400;12.486;2022-07-22T10:12:59;21.70;3.50
13245;DHT22;6689;53.400;12.486;2022-07-22T10:15:35;21.50;1.00
13245;DHT22;6689;53.400;12.486;2022-07-22T10:18:18;21.50;1.00
13245;DHT22;6689;53.400;12.486;2022-07-22T10:21:06;21.30;1.00
13245;DHT22;6689;53.400;12.486;2022-07-22T10:23:35;21.40;1.00
13245;DHT22;6689;53.400;12.486;2022-07-22T10:26:04;21.40;3.30
13245;DHT22;6689;53.400;12.486;2022-07-22T10:28:45;21.20;15.70
13245;DHT22;6689;53.400;12.486;2022-07-22T10:31:21;21.20;3.20
13245;DHT22;6689;53.400;12.486;2022-07-22T10:33:51;20.70;22.70
13245;DHT22;6689;53.400;12.486;2022-07-22T10:36:45;21.00;3.20
13245;DHT22;6689;53.400;12.486;2022-07-22T10:39:15;21.20;61.40
13245;DHT22;6689;53.400;12.486;2022-07-22T10:41:56;21.20;12.70
13245;DHT22;6689;53.400;12.486;2022-07-22T10:44:46;21.20;17.70
13245;DHT22;6689;53.400;12.486;2022-07-22T10:47:14;21.10;16.70
13245;DHT22;6689;53.400;12.486;2022-07-22T10:49:45;21.10;33.40
13245;DHT22;6689;53.400;12.486;2022-07-22T10:52:34;21.10;53.50
13245;DHT22;6689;53.400;12.486;2022-07-22T10:55:21;21.10;22.70
13245;DHT22;6689;53.400;12.486;2022-07-22T10:57:49;20.80;37.30
13245;DHT22;6689;53.400;12.486;2022-07-22T11:00:30;20.90;22.30
13245;DHT22;6689;53.400;12.486;2022-07-22T11:03:05;21.00;20.90
13245;DHT22;6689;53.400;12.486;2022-07-22T11:05:35;21.10;52.90
13245;DHT22;6689;53.400;12.486;2022-07-22T11:08:10;20.90;65.10
13245;DHT22;6689;53.400;12.486;2022-07-22T11:10:47;20.80;55.60
13245;DHT22;6689;53.400;12.486;2022-07-22T11:13:30;21.10;53.10
13245;DHT22;6689;53.400;12.486;2022-07-22T11:16:16;21.10;35.80
13245;DHT22;6689;53.400;12.486;2022-07-22T11:18:53;21.00;14.90
13245;DHT22;6689;53.400;12.486;2022-07-22T11:21:23;21.10;19.00
13245;DHT22;6689;53.400;12.486;2022-07-22T11:23:54;21.10;13.80
13245;DHT22;6689;53.400;12.486;2022-07-22T11:26:39;21.20;18.20
13245;DHT22;6689;53.400;12.486;2022-07-22T11:29:16;21.30;16.60
13245;DHT22;6689;53.400;12.486;2022-07-22T11:32:01;21.40;27.10
13245;DHT22;6689;53.400;12.486;2022-07-22T11:34:31;21.50;30.90
13245;DHT22;6689;53.400;12.486;2022-07-22T11:37:12;21.70;31.80
13245;DHT22;6689;53.400;12.486;2022-07-22T11:39:51;21.90;51.90
13245;DHT22;6689;53.400;12.486;2022-07-22T11:42:24;22.10;1.00
13245;DHT22;6689;53.400;12.486;2022-07-22T11:45:06;22.20;1.00
13245;DHT22;6689;53.400;12.486;2022-07-22T11:47:35;22.20;1.00
13245;DHT22;6689;53.400;12.486;2022-07-22T11:50:07;22.20;1.00
13245;DHT22;6689;53.400;12.486;2022-07-22T11:52:35;22.00;1.00
13245;DHT22;6689;53.400;12.486;2022-07-22T11:55:21;21.80;1.00
13245;DHT22;6689;53.400;12.486;2022-07-22T11:58:01;21.30;1.00
13245;DHT22;6689;53.400;12.486;2022-07-22T12:00:46;21.50;1.00
13245;DHT22;6689;53.400;12.486;2022-07-22T12:03:27;21.50;1.00
13245;DHT22;6689;53.400;12.486;2022-07-22T12:06:10;21.50;1.00
13245;DHT22;6689;53.400;12.486;2022-07-22T12:08:54;21.50;1.00
13245;DHT22;6689;53.400;12.486;2022-07-22T12:11:31;21.40;1.00
13245;DHT22;6689;53.400;12.486;2022-07-22T12:14:07;21.30;1.00
13245;DHT22;6689;53.400;12.486;2022-07-22T12:16:39;21.40;1.00
13245;DHT22;6689;53.400;12.486;2022-07-22T12:19:12;21.20;1.00
13245;DHT22;6689;53.400;12.486;2022-07-22T12:21:51;21.10;1.00
13245;DHT22;6689;53.400;12.486;2022-07-22T12:24:28;21.20;1.00
13245;DHT22;6689;53.400;12.486;2022-07-22T12:30:22;21.30;1.00
13245;DHT22;6689;53.400;12.486;2022-07-22T12:32:50;21.40;1.00
13245;DHT22;6689;53.400;12.486;2022-07-22T12:35:31;21.50;1.00
13245;DHT22;6689;53.400;12.486;2022-07-22T12:38:07;21.80;1.00
13245;DHT22;6689;53.400;12.486;2022-07-22T12:40:37;21.90;1.00
13245;DHT22;6689;53.400;12.486;2022-07-22T12:43:24;22.00;1.00
13245;DHT22;6689;53.400;12.486;2022-07-22T12:46:02;22.30;1.00
13245;DHT22;6689;53.400;12.486;2022-07-22T12:48:32;22.30;1.00
13245;DHT22;6689;53.400;12.486;2022-07-22T12:51:13;22.30;1.00
13245;DHT22;6689;53.400;12.486;2022-07-22T12:53:54;22.20;1.00
13245;DHT22;6689;53.400;12.486;2022-07-22T12:56:21;22.30;1.00
13245;DHT22;6689;53.400;12.486;2022-07-22T12:59:02;22.40;1.00
13245;DHT22;6689;53.400;12.486;2022-07-22T13:02:07;22.30;1.00
13245;DHT22;6689;53.400;12.486;2022-07-22T13:04:48;22.10;1.00
13245;DHT22;6689;53.400;12.486;2022-07-22T13:07:28;22.50;1.00
13245;DHT22;6689;53.400;12.486;2022-07-22T13:10:10;22.70;1.00
13245;DHT22;6689;53.400;12.486;2022-07-22T13:12:52;22.90;1.00
13245;DHT22;6689;53.400;12.486;2022-07-22T13:15:22;23.00;1.00
13245;DHT22;6689;53.400;12.486;2022-07-22T13:18:07;23.10;1.00
13245;DHT22;6689;53.400;12.486;2022-07-22T13:20:48;23.20;1.00
13245;DHT22;6689;53.400;12.486;2022-07-22T13:23:29;23.40;1.00
13245;DHT22;6689;53.400;12.486;2022-07-22T13:26:10;23.50;1.00
13245;DHT22;6689;53.400;12.486;2022-07-22T13:28:51;23.60;1.00
13245;DHT22;6689;53.400;12.486;2022-07-22T13:31:31;23.50;1.00
13245;DHT22;6689;53.400;12.486;2022-07-22T13:34:37;23.50;1.00
13245;DHT22;6689;53.400;12.486;2022-07-22T13:37:12;23.40;1.00
13245;DHT22;6689;53.400;12.486;2022-07-22T13:39:52;23.50;1.00
13245;DHT22;6689;53.400;12.486;2022-07-22T13:42:21;23.60;1.00
13245;DHT22;6689;53.400;12.486;2022-07-22T13:45:03;23.80;1.00
13245;DHT22;6689;53.400;12.486;2022-07-22T13:47:40;23.80;1.00
13245;DHT22;6689;53.400;12.486;2022-07-22T13:50:27;23.90;1.00
13245;DHT22;6689;53.400;12.486;2022-07-22T13:53:02;24.20;1.00
13245;DHT22;6689;53.400;12.486;2022-07-22T13:55:40;24.30;1.00
13245;DHT22;6689;53.400;12.486;2022-07-22T13:58:08;24.30;1.00
13245;DHT22;6689;53.400;12.486;2022-07-22T14:00:37;24.30;1.00
13245;DHT22;6689;53.400;12.486;2022-07-22T14:03:07;24.30;1.00
13245;DHT22;6689;53.400;12.486;2022-07-22T14:05:52;24.40;1.00
13245;DHT22;6689;53.400;12.486;2022-07-22T14:08:33;24.50;1.00
13245;DHT22;6689;53.400;12.486;2022-07-22T14:11:08;24.60;1.00
13245;DHT22;6689;53.400;12.486;2022-07-22T14:13:37;24.60;1.00
13245;DHT22;6689;53.400;12.486;2022-07-22T14:16:05;24.60;1.00
13245;DHT22;6689;53.400;12.486;2022-07-22T14:18:47;24.70;1.00
13245;DHT22;6689;53.400;12.486;2022-07-22T14:21:16;24.70;1.00
13245;DHT22;6689;53.400;12.486;2022-07-22T14:23:54;24.80;1.00
13245;DHT22;6689;53.400;12.486;2022-07-22T14:26:29;24.90;1.00
13245;DHT22;6689;53.400;12.486;2022-07-22T14:29:10;25.00;1.00
13245;DHT22;6689;53.400;12.486;2022-07-22T14:31:52;25.00;1.00
13245;DHT22;6689;53.400;12.486;2022-07-22T14:34:19;24.90;1.00
13245;DHT22;6689;53.400;12.486;2022-07-22T14:37:02;25.10;1.00
13245;DHT22;6689;53.400;12.486;2022-07-22T14:39:43;25.10;1.00
13245;DHT22;6689;53.400;12.486;2022-07-22T14:42:12;25.20;1.00
13245;DHT22;6689;53.400;12.486;2022-07-22T14:44:53;25.20;1.00
13245;DHT22;6689;53.400;12.486;2022-07-22T14:47:22;25.20;1.00
13245;DHT22;6689;53.400;12.486;2022-07-22T14:49:57;25.20;1.00
13245;DHT22;6689;53.400;12.486;2022-07-22T14:53:02;25.20;1.00
13245;DHT22;6689;53.400;12.486;2022-07-22T14:55:29;25.20;1.00
13245;DHT22;6689;53.400;12.486;2022-07-22T14:57:57;25.10;1.00
13245;DHT22;6689;53.400;12.486;2022-07-22T15:00:38;25.10;1.00
13245;DHT22;6689;53.400;12.486;2022-07-22T15:03:08;24.90;1.00
13245;DHT22;6689;53.400;12.486;2022-07-22T15:05:49;24.90;1.00
13245;DHT22;6689;53.400;12.486;2022-07-22T15:11:38;25.00;1.00
13245;DHT22;6689;53.400;12.486;2022-07-22T15:14:19;25.10;1.00
13245;DHT22;6689;53.400;12.486;2022-07-22T15:16:53;25.00;1.00
13245;DHT22;6689;53.400;12.486;2022-07-22T15:19:28;25.00;1.00
13245;DHT22;6689;53.400;12.486;2022-07-22T15:22:02;25.00;1.00
13245;DHT22;6689;53.400;12.486;2022-07-22T15:24:43;24.90;1.00
13245;DHT22;6689;53.400;12.486;2022-07-22T15:27:19;24.70;1.00
13245;DHT22;6689;53.400;12.486;2022-07-22T15:29:54;24.80;1.00
13245;DHT22;6689;53.400;12.486;2022-07-22T15:32:24;24.70;1.00
13245;DHT22;6689;53.400;12.486;2022-07-22T15:35:07;24.70;1.00
13245;DHT22;6689;53.400;12.486;2022-07-22T15:37:35;24.80;1.00
13245;DHT22;6689;53.400;12.486;2022-07-22T15:40:15;24.90;1.00
13245;DHT22;6689;53.400;12.486;2022-07-22T15:46:03;24.70;1.00
13245;DHT22;6689;53.400;12.486;2022-07-22T15:48:44;24.80;1.00
13245;DHT22;6689;53.400;12.486;2022-07-22T15:51:18;24.70;1.00
13245;DHT22;6689;53.400;12.486;2022-07-22T15:53:59;24.60;1.00
13245;DHT22;6689;53.400;12.486;2022-07-22T15:56:40;24.70;1.00
13245;DHT22;6689;53.400;12.486;2022-07-22T15:59:08;24.80;1.00
13245;DHT22;6689;53.400;12.486;2022-07-22T16:01:54;24.80;1.00
13245;DHT22;6689;53.400;12.486;2022-07-22T16:04:23;24.70;1.00
13245;DHT22;6689;53.400;12.486;2022-07-22T16:07:04;24.70;1.00
13245;DHT22;6689;53.400;12.486;2022-07-22T16:09:45;24.60;1.00
13245;DHT22;6689;53.400;12.486;2022-07-22T16:12:25;24.60;1.00
13245;DHT22;6689;53.400;12.486;2022-07-22T16:14:54;24.60;1.00
13245;DHT22;6689;53.400;12.486;2022-07-22T16:17:30;24.60;1.00
13245;DHT22;6689;53.400;12.486;2022-07-22T16:19:58;24.70;1.00
13245;DHT22;6689;53.400;12.486;2022-07-22T16:22:39;24.60;1.00
13245;DHT22;6689;53.400;12.486;2022-07-22T16:25:09;24.60;1.00
13245;DHT22;6689;53.400;12.486;2022-07-22T16:27:44;24.60;1.00
13245;DHT22;6689;53.400;12.486;2022-07-22T16:30:14;24.60;1.00
13245;DHT22;6689;53.400;12.486;2022-07-22T16:33:09;24.70;1.00
13245;DHT22;6689;53.400;12.486;2022-07-22T16:35:40;24.60;1.00
13245;DHT22;6689;53.400;12.486;2022-07-22T16:38:09;24.60;1.00
13245;DHT22;6689;53.400;12.486;2022-07-22T16:40:49;24.70;1.00
13245;DHT22;6689;53.400;12.486;2022-07-22T16:43:18;24.50;1.00
13245;DHT22;6689;53.400;12.486;2022-07-22T16:45:59;24.40;1.00
13245;DHT22;6689;53.400;12.486;2022-07-22T16:48:49;24.40;1.00
13245;DHT22;6689;53.400;12.486;2022-07-22T16:51:24;24.40;1.00
13245;DHT22;6689;53.400;12.486;2022-07-22T16:54:04;24.30;1.00
13245;DHT22;6689;53.400;12.486;2022-07-22T16:56:39;24.30;1.00
13245;DHT22;6689;53.400;12.486;2022-07-22T16:59:13;24.20;1.00
13245;DHT22;6689;53.400;12.486;2022-07-22T17:01:44;24.20;1.00
13245;DHT22;6689;53.400;12.486;2022-07-22T17:07:30;24.10;1.00
13245;DHT22;6689;53.400;12.486;2022-07-22T17:09:59;24.00;1.00
13245;DHT22;6689;53.400;12.486;2022-07-22T17:12:30;24.00;1.00
13245;DHT22;6689;53.400;12.486;2022-07-22T17:15:01;23.90;1.00
13245;DHT22;6689;53.400;12.486;2022-07-22T17:17:30;23.90;1.00
13245;DHT22;6689;53.400;12.486;2022-07-22T17:20:11;24.00;1.00
13245;DHT22;6689;53.400;12.486;2022-07-22T17:22:44;23.80;1.00